Time;durP1;ratioP1;P1;durP2;ratioP2;P2;SDS_P1;SDS_P2;PMS_P1;PMS_P2;Temp;Humidity;BMP_temperature;BMP_pressure;BME280_temperature;BME280_humidity;BME280_pressure;Samples;Min_cycle;Max_cycle;Signal;HPM_P1;HPM_P2
2023/01/24 00:00:01;;;;;;;9.00;6.63;;;;;;;3.47;100.00;93889.75;5068041;28;20484;-70
2023/01/24 00:02:28;;;;;;;19.55;12.45;;;;;;;3.58;100.00;93906.50;5042992;28;20443;-70
2023/01/24 00:04:55;;;;;;;14.15;9.48;;;;;;;3.36;100.00;93865.41;5068126;28;20536;-70
2023/01/24 00:07:22;;;;;;;11.18;7.45;;;;;;;3.62;100.00;93915.44;5068243;28;20052;-69
2023/01/24 00:09:48;;;;;;;11.52;8.23;;;;;;;3.76;100.00;93910.72;5068419;28;20118;-70
2023/01/24 00:12:15;;;;;;;14.88;9.60;;;;;;;3.76;100.00;93915.81;5068227;28;20045;-70
2023/01/24 00:14:42;;;;;;;17.08;10.43;;;;;;;3.81;100.00;93916.16;5068535;28;20053;-70
2023/01/24 00:17:10;;;;;;;29.65;13.05;;;;;;;3.75;100.00;93902.31;5068363;28;20106;-70
2023/01/24 00:19:36;;;;;;;44.88;18.17;;;;;;;3.77;100.00;93915.66;5068154;28;20044;-70
2023/01/24 00:22:03;;;;;;;58.00;23.15;;;;;;;3.74;100.00;93918.50;5068121;28;20052;-70
2023/01/24 00:24:32;;;;;;;27.80;12.52;;;;;;;3.66;100.00;93924.31;5068251;28;20040;-70
2023/01/24 00:26:59;;;;;;;35.90;16.45;;;;;;;3.74;100.00;93929.47;5068451;28;20044;-70
2023/01/24 00:29:26;;;;;;;33.17;14.82;;;;;;;3.70;100.00;93925.63;5068439;28;20044;-70
2023/01/24 00:31:53;;;;;;;35.53;16.30;;;;;;;3.72;100.00;93926.28;5067842;28;20045;-70
2023/01/24 00:34:21;;;;;;;17.05;10.15;;;;;;;3.76;100.00;93929.34;5068571;28;20097;-69
2023/01/24 00:36:48;;;;;;;18.42;11.88;;;;;;;3.65;100.00;93925.28;5067979;28;20086;-70
2023/01/24 00:39:14;;;;;;;18.20;11.85;;;;;;;3.69;100.00;93926.59;5071137;28;20086;-70
2023/01/24 00:41:41;;;;;;;19.52;12.38;;;;;;;3.70;100.00;93912.91;5072297;28;20040;-69
2023/01/24 00:44:08;;;;;;;20.13;11.70;;;;;;;3.64;100.00;93920.34;5071935;28;20048;-70
2023/01/24 00:46:35;;;;;;;18.95;12.23;;;;;;;3.63;100.00;93919.56;5071734;28;20040;-70
2023/01/24 00:49:01;;;;;;;19.75;11.80;;;;;;;3.72;100.00;93918.66;5071668;28;20092;-69
2023/01/24 00:51:29;;;;;;;44.33;22.38;;;;;;;3.75;100.00;93925.16;5072153;28;20040;-70
2023/01/24 00:53:56;;;;;;;29.75;14.75;;;;;;;3.73;100.00;93925.34;5071805;28;20550;-70
2023/01/24 00:56:23;;;;;;;9.10;6.85;;;;;;;3.73;100.00;93922.81;5071944;28;20098;-70
2023/01/24 00:58:49;;;;;;;10.90;6.68;;;;;;;3.78;100.00;93913.91;5071901;28;20098;-70
2023/01/24 01:01:16;;;;;;;10.77;6.60;;;;;;;3.78;100.00;93922.34;5071669;28;20040;-70
2023/01/24 01:03:43;;;;;;;10.65;6.25;;;;;;;3.67;100.00;93931.03;5071943;28;20048;-70
2023/01/24 01:06:14;;;;;;;11.63;7.07;;;;;;;3.68;100.00;93930.06;5071638;28;20185;-70
2023/01/24 01:08:43;;;;;;;11.13;6.88;;;;;;;3.73;100.00;93932.16;5071940;28;20109;-70
2023/01/24 01:11:09;;;;;;;11.07;6.53;;;;;;;3.76;100.00;93934.41;5071597;28;20048;-70
2023/01/24 01:13:36;;;;;;;8.45;5.85;;;;;;;3.80;100.00;93932.38;5071701;28;20037;-70
2023/01/24 01:16:04;;;;;;;10.18;6.43;;;;;;;3.76;100.00;93929.34;5071373;28;20493;-70
2023/01/24 01:18:31;;;;;;;9.70;6.68;;;;;;;3.69;100.00;93926.59;5071448;28;20463;-70
2023/01/24 01:20:58;;;;;;;11.05;7.15;;;;;;;3.69;100.00;93933.38;5071244;28;20137;-70
2023/01/24 01:23:25;;;;;;;8.25;5.72;;;;;;;3.69;100.00;93924.03;5071996;28;20068;-70
2023/01/24 01:25:53;;;;;;;10.23;6.50;;;;;;;3.55;100.00;93927.91;5057960;28;20115;-70
2023/01/24 01:28:20;;;;;;;12.80;8.70;;;;;;;3.40;100.00;93925.13;5071132;28;20052;-70
2023/01/24 01:30:52;;;;;;;16.80;10.00;;;;;;;3.40;100.00;93926.84;5071395;28;20045;-70
2023/01/24 01:33:21;;;;;;;31.23;13.45;;;;;;;3.30;100.00;93932.81;5063241;28;20044;-70
2023/01/24 01:36:16;;;;;;;14.50;8.30;;;;;;;3.06;100.00;93911.34;5070519;28;20052;-71
2023/01/24 01:38:42;;;;;;;10.77;7.28;;;;;;;3.11;100.00;93921.09;5070930;28;20492;-71
2023/01/24 01:41:12;;;;;;;17.58;9.23;;;;;;;3.15;100.00;93917.28;5061701;28;20102;-70
2023/01/24 01:44:37;;;;;;;11.30;6.57;;;;;;;2.96;100.00;93915.69;5050939;28;20041;-70
2023/01/24 01:46:29;;;;;;;14.48;8.00;;;;;;;3.01;100.00;93910.22;5050993;28;20128;-70
2023/01/24 01:49:00;;;;;;;21.42;8.75;;;;;;;3.07;100.00;93910.41;5050594;28;20049;-70
2023/01/24 01:51:32;;;;;;;25.02;11.15;;;;;;;3.23;100.00;93914.03;5050432;28;20045;-70
2023/01/24 01:54:04;;;;;;;27.10;12.55;;;;;;;3.17;100.00;93909.53;5050991;28;20060;-70
2023/01/24 01:56:38;;;;;;;29.23;13.35;;;;;;;3.05;100.00;93892.00;5050926;28;20045;-70
2023/01/24 01:59:08;;;;;;;28.65;12.25;;;;;;;3.28;100.00;93909.31;5050795;28;20056;-70
2023/01/24 02:01:35;;;;;;;16.40;8.27;;;;;;;3.20;100.00;93912.56;5050636;28;20540;-70
2023/01/24 02:04:07;;;;;;;12.63;7.30;;;;;;;3.03;100.00;93904.03;5050814;28;20099;-71
2023/01/24 02:06:48;;;;;;;10.13;6.53;;;;;;;3.05;100.00;93898.78;5050633;28;20041;-70
2023/01/24 02:09:19;;;;;;;10.50;7.32;;;;;;;3.13;100.00;93901.41;5050240;28;20501;-70
2023/01/24 02:11:48;;;;;;;9.80;6.75;;;;;;;2.70;100.00;93860.63;5050337;28;20094;-70
2023/01/24 02:17:03;;;;;;;16.02;8.05;;;;;;;2.89;100.00;93900.28;5050358;28;20056;-70
2023/01/24 02:19:42;;;;;;;15.50;8.68;;;;;;;3.01;100.00;93892.44;5050489;28;20049;-69
2023/01/24 02:22:16;;;;;;;13.38;7.68;;;;;;;3.15;100.00;93899.53;5047841;28;20092;-70
2023/01/24 02:24:53;;;;;;;11.88;7.60;;;;;;;3.38;100.00;93905.91;5050491;28;20452;-70
2023/01/24 02:27:21;;;;;;;12.43;7.95;;;;;;;3.59;100.00;93911.44;5050308;28;20098;-70
2023/01/24 02:29:48;;;;;;;12.70;8.25;;;;;;;3.78;100.00;93919.00;5062720;28;20052;-70
2023/01/24 02:32:16;;;;;;;12.23;7.38;;;;;;;3.74;100.00;93916.75;5070019;28;20156;-70
2023/01/24 02:34:43;;;;;;;9.25;6.05;;;;;;;3.71;100.00;93921.34;5070200;28;20045;-71
2023/01/24 02:37:14;;;;;;;13.77;7.97;;;;;;;3.74;100.00;93926.94;5070171;28;20093;-71
2023/01/24 02:39:48;;;;;;;11.77;7.85;;;;;;;3.82;100.00;93920.28;5065541;28;20054;-71
2023/01/24 02:42:20;;;;;;;10.73;7.40;;;;;;;3.88;100.00;93914.59;5067641;28;20570;-70
2023/01/24 02:44:53;;;;;;;11.90;7.13;;;;;;;3.82;100.00;93920.28;5069881;28;20067;-70
2023/01/24 02:47:20;;;;;;;11.55;6.90;;;;;;;3.78;100.00;93919.00;5069973;28;20090;-70
2023/01/24 02:49:47;;;;;;;12.18;6.90;;;;;;;3.84;100.00;93915.88;5069685;28;20082;-70
2023/01/24 02:54:58;;;;;;;13.88;8.68;;;;;;;3.61;100.00;93914.63;5069967;28;20052;-70
2023/01/24 03:00:12;;;;;;;11.02;7.20;;;;;;;3.61;100.00;93911.28;5069539;28;20077;-71
2023/01/24 03:02:41;;;;;;;14.23;7.63;;;;;;;3.49;100.00;93903.13;5068573;28;20088;-71
2023/01/24 03:05:11;;;;;;;12.65;7.65;;;;;;;3.38;100.00;93908.44;5069382;28;20040;-71
2023/01/24 03:07:48;;;;;;;9.95;6.43;;;;;;;3.42;100.00;93902.91;5069570;28;20048;-71
2023/01/24 03:10:19;;;;;;;12.38;7.43;;;;;;;3.41;100.00;93898.78;5068740;28;20454;-71
2023/01/24 03:34:48;;;;;;;9.90;6.93;;;;;;;2.65;100.00;93881.31;5069111;28;20050;-70
2023/01/24 03:39:53;;;;;;;10.43;7.13;;;;;;;2.70;100.00;93883.44;5068810;28;20518;-70
2023/01/24 03:40:11;;;;;;;10.55;6.75;;;;;;;2.63;100.00;93865.47;5069311;28;20037;-70
2023/01/24 03:42:46;;;;;;;11.00;6.70;;;;;;;2.56;100.00;93873.78;5069173;28;20131;-70
2023/01/24 03:45:17;;;;;;;10.25;6.35;;;;;;;2.44;100.00;93853.72;5069120;28;20051;-70
2023/01/24 03:47:54;;;;;;;10.35;7.80;;;;;;;2.49;100.00;93865.94;5068906;28;20114;-70
2023/01/24 03:53:14;;;;;;;9.73;5.80;;;;;;;2.31;100.00;93859.13;5068670;28;20059;-70
2023/01/24 03:55:41;;;;;;;9.73;7.00;;;;;;;2.45;100.00;93864.66;5068519;28;20056;-70
2023/01/24 03:58:10;;;;;;;11.80;7.68;;;;;;;2.50;100.00;93855.66;5068721;28;20135;-71
2023/01/24 04:00:38;;;;;;;10.88;6.85;;;;;;;2.38;100.00;93869.50;5068456;28;20049;-70
2023/01/24 04:03:06;;;;;;;8.18;5.65;;;;;;;2.40;100.00;93865.06;5068667;28;20040;-71
2023/01/24 04:05:33;;;;;;;8.50;5.88;;;;;;;2.31;100.00;93866.72;5068552;28;20040;-70
2023/01/24 04:08:00;;;;;;;9.38;5.53;;;;;;;2.31;100.00;93868.47;5068465;28;20075;-70
2023/01/24 04:10:27;;;;;;;7.90;6.00;;;;;;;2.33;100.00;93867.41;5068331;28;20099;-71
2023/01/24 04:12:54;;;;;;;8.32;6.13;;;;;;;2.34;100.00;93871.53;5070040;28;20048;-70
2023/01/24 04:15:24;;;;;;;9.15;5.22;;;;;;;2.36;100.00;93871.38;5075154;28;20036;-70
2023/01/24 04:17:50;;;;;;;11.20;6.70;;;;;;;2.20;100.00;93872.00;5075263;28;20071;-70
2023/01/24 04:20:19;;;;;;;9.13;6.95;;;;;;;2.23;100.00;93875.03;5075085;28;20044;-70
2023/01/24 04:22:45;;;;;;;9.70;6.60;;;;;;;2.10;100.00;93875.41;5074971;28;20041;-70
2023/01/24 04:25:12;;;;;;;10.55;6.55;;;;;;;2.06;100.00;93871.53;5075246;28;20759;-71
2023/01/24 04:27:39;;;;;;;9.10;6.85;;;;;;;2.03;100.00;93873.56;5075019;28;20040;-70
2023/01/24 04:30:07;;;;;;;9.07;6.45;;;;;;;2.27;100.00;93873.03;5074969;28;20053;-69
2023/01/24 04:32:34;;;;;;;8.45;6.15;;;;;;;2.36;100.00;93881.53;5074618;28;20565;-69
2023/01/24 04:35:03;;;;;;;10.60;6.75;;;;;;;2.16;100.00;93876.56;5074714;28;20542;-70
2023/01/24 04:37:32;;;;;;;7.82;6.15;;;;;;;2.34;100.00;93879.13;5074791;28;20040;-70
2023/01/24 04:40:00;;;;;;;9.43;6.35;;;;;;;2.04;100.00;93865.00;5074688;28;20089;-70
2023/01/24 04:42:27;;;;;;;9.05;6.72;;;;;;;2.22;100.00;93885.34;5068925;28;20047;-71
2023/01/24 04:44:54;;;;;;;11.70;7.07;;;;;;;2.31;100.00;93891.31;5072094;28;20048;-71
2023/01/24 04:47:20;;;;;;;10.15;6.97;;;;;;;2.36;100.00;93886.59;5074583;28;20085;-71
2023/01/24 04:49:47;;;;;;;9.48;6.57;;;;;;;2.42;100.00;93893.63;5061005;28;20094;-70
2023/01/24 04:52:14;;;;;;;9.13;6.63;;;;;;;2.41;100.00;93879.38;5075373;28;20060;-70
2023/01/24 04:54:42;;;;;;;11.05;6.78;;;;;;;2.54;100.00;93894.22;5075282;28;20451;-70
2023/01/24 04:57:12;;;;;;;8.35;6.60;;;;;;;2.53;100.00;93900.22;5074933;28;20101;-70
2023/01/24 04:59:39;;;;;;;9.15;6.30;;;;;;;2.48;100.00;93905.75;5074787;28;20546;-70
2023/01/24 05:02:06;;;;;;;8.77;6.50;;;;;;;2.46;100.00;93914.44;5074760;28;20531;-70
2023/01/24 05:04:33;;;;;;;11.73;7.68;;;;;;;2.47;100.00;93904.16;5074849;28;20049;-70
2023/01/24 05:06:59;;;;;;;10.55;8.20;;;;;;;2.56;100.00;93914.38;5075366;28;20463;-70
2023/01/24 05:09:26;;;;;;;9.52;7.32;;;;;;;2.54;100.00;93922.13;5075134;28;20052;-70
2023/01/24 05:11:54;;;;;;;10.50;7.68;;;;;;;2.47;100.00;93909.22;5075361;28;20178;-70
2023/01/24 05:14:21;;;;;;;15.23;9.25;;;;;;;2.35;100.00;93920.47;5075142;28;20436;-70
2023/01/24 05:16:47;;;;;;;11.02;7.50;;;;;;;2.36;100.00;93927.16;5075151;28;20098;-70
2023/01/24 05:19:14;;;;;;;9.23;7.30;;;;;;;2.42;100.00;93939.28;5074422;28;20466;-70
2023/01/24 05:21:41;;;;;;;10.00;7.35;;;;;;;2.50;100.00;93930.97;5074757;28;20093;-70
2023/01/24 05:24:08;;;;;;;9.65;7.53;;;;;;;2.52;100.00;93936.69;5074390;28;20113;-70
2023/01/24 05:26:34;;;;;;;9.50;6.85;;;;;;;2.49;100.00;93934.41;5071033;28;20048;-70
2023/01/24 05:29:03;;;;;;;10.65;7.85;;;;;;;2.48;100.00;93942.97;5071431;28;20447;-70
2023/01/24 05:31:29;;;;;;;11.13;7.82;;;;;;;2.50;100.00;93936.81;5071533;28;20772;-70
2023/01/24 05:33:56;;;;;;;11.77;8.48;;;;;;;2.50;100.00;93941.91;5045228;28;20045;-70
2023/01/24 05:36:25;;;;;;;17.35;10.65;;;;;;;2.38;100.00;93943.84;5058335;28;20514;-70
2023/01/24 05:38:51;;;;;;;11.02;7.72;;;;;;;2.46;100.00;93944.84;5071248;28;20504;-70
2023/01/24 05:41:20;;;;;;;8.93;6.55;;;;;;;2.40;100.00;93933.53;5071005;28;20488;-70
2023/01/24 05:43:47;;;;;;;9.50;7.05;;;;;;;2.45;100.00;93958.47;5071245;28;20572;-70
2023/01/24 05:46:17;;;;;;;8.88;6.57;;;;;;;2.35;100.00;93926.34;5071049;28;20044;-70
2023/01/24 05:48:46;;;;;;;16.80;9.65;;;;;;;2.59;100.00;93952.94;5071580;28;20098;-70
2023/01/24 05:51:14;;;;;;;17.23;10.88;;;;;;;2.40;100.00;93964.78;5070773;28;20052;-71
2023/01/24 05:53:42;;;;;;;9.23;7.25;;;;;;;2.34;100.00;93964.53;5071609;28;20192;-70
2023/01/24 05:56:13;;;;;;;13.93;9.43;;;;;;;2.37;100.00;93949.81;5071216;28;20095;-71
2023/01/24 05:58:40;;;;;;;17.05;11.10;;;;;;;2.23;100.00;93956.16;5071550;28;20053;-70
2023/01/24 06:01:08;;;;;;;14.68;10.25;;;;;;;2.29;100.00;93956.53;5070602;28;20044;-70
2023/01/24 06:03:37;;;;;;;15.27;9.25;;;;;;;2.08;100.00;93962.63;5070393;28;20048;-70
2023/01/24 06:06:05;;;;;;;16.77;10.15;;;;;;;2.05;100.00;93961.19;5070948;28;20306;-70
2023/01/24 06:08:31;;;;;;;14.77;10.15;;;;;;;1.86;100.00;93947.59;5071004;28;20052;-70
2023/01/24 06:11:03;;;;;;;12.25;8.95;;;;;;;1.59;100.00;93920.50;5070669;28;20550;-70
2023/01/24 06:13:30;;;;;;;12.60;8.77;;;;;;;1.72;100.00;93973.38;5071060;28;20044;-70
2023/01/24 06:16:01;;;;;;;12.90;8.88;;;;;;;1.70;100.00;93977.78;5070805;28;20054;-70
2023/01/24 06:18:28;;;;;;;9.35;7.65;;;;;;;1.63;100.00;93974.19;5070863;28;20048;-70
2023/01/24 06:20:57;;;;;;;10.77;8.27;;;;;;;1.62;100.00;93975.91;5070481;28;20500;-70
2023/01/24 06:23:26;;;;;;;13.80;9.88;;;;;;;1.60;100.00;93980.31;5070400;28;20865;-71
2023/01/24 06:25:54;;;;;;;11.88;7.95;;;;;;;1.63;100.00;93992.72;5062710;28;20533;-70
2023/01/24 06:28:21;;;;;;;9.90;7.50;;;;;;;1.59;100.00;93993.94;5069311;28;20044;-71
2023/01/24 06:30:54;;;;;;;11.57;8.52;;;;;;;1.18;100.00;93951.84;5070787;28;20459;-70
2023/01/24 06:33:34;;;;;;;10.73;8.95;;;;;;;1.51;100.00;93994.59;5070167;28;20098;-70
2023/01/24 06:36:26;;;;;;;13.73;10.40;;;;;;;1.40;100.00;93994.72;5070431;28;20044;-70
2023/01/24 06:38:53;;;;;;;14.35;10.63;;;;;;;1.54;100.00;93999.41;5070238;28;20518;-70
2023/01/24 06:41:20;;;;;;;11.35;7.65;;;;;;;1.35;100.00;94005.28;5069840;28;20489;-70
2023/01/24 06:43:47;;;;;;;9.85;7.03;;;;;;;1.33;100.00;94007.94;5069986;28;20094;-70
2023/01/24 06:46:14;;;;;;;10.98;8.15;;;;;;;1.34;100.00;93998.59;5069764;28;20105;-70
2023/01/24 06:48:43;;;;;;;44.22;24.77;;;;;;;1.37;100.00;94008.47;5070196;28;20051;-70
2023/01/24 06:51:14;;;;;;;16.42;10.98;;;;;;;1.31;100.00;94011.53;5069971;28;20059;-70
2023/01/24 06:53:40;;;;;;;12.63;8.48;;;;;;;1.36;100.00;94013.66;5069681;28;20044;-70
2023/01/24 06:56:08;;;;;;;9.32;7.43;;;;;;;1.35;100.00;94015.41;5070181;28;20455;-70
2023/01/24 06:58:35;;;;;;;21.35;13.65;;;;;;;1.45;100.00;94013.63;5069812;28;20056;-70
2023/01/24 07:01:01;;;;;;;10.00;7.25;;;;;;;1.46;100.00;94015.25;5069229;28;20090;-71
2023/01/24 07:03:28;;;;;;;23.67;14.75;;;;;;;1.41;100.00;94025.00;5069899;28;20048;-70
2023/01/24 07:05:55;;;;;;;12.32;8.23;;;;;;;1.52;100.00;94018.19;5069085;28;20098;-70
2023/01/24 07:08:23;;;;;;;24.95;14.57;;;;;;;1.70;100.00;94023.38;5069923;28;20102;-70
2023/01/24 07:10:49;;;;;;;36.80;18.73;;;;;;;1.69;100.00;94017.50;5069126;28;20578;-70
2023/01/24 07:13:16;;;;;;;61.03;34.80;;;;;;;1.66;100.00;94024.59;5069205;28;20048;-70
2023/01/24 07:15:43;;;;;;;9.52;6.78;;;;;;;1.46;100.00;94033.00;5066122;28;20045;-70
2023/01/24 07:18:13;;;;;;;24.75;15.40;;;;;;;1.49;100.00;94036.97;5059701;28;20448;-71
2023/01/24 07:20:40;;;;;;;36.13;21.02;;;;;;;1.63;100.00;94033.25;5069653;28;20040;-70
2023/01/24 07:23:20;;;;;;;28.10;17.23;;;;;;;1.60;100.00;94036.84;5069616;28;20098;-70
2023/01/24 07:25:48;;;;;;;40.47;22.58;;;;;;;1.47;100.00;94051.50;5069556;28;20040;-70
2023/01/24 07:28:16;;;;;;;11.35;9.35;;;;;;;1.59;100.00;94039.50;5069263;28;20452;-70
2023/01/24 07:30:44;;;;;;;11.65;8.38;;;;;;;1.52;100.00;94044.31;5069035;28;20492;-70
2023/01/24 07:33:11;;;;;;;14.68;10.93;;;;;;;1.72;100.00;94049.38;5069489;28;20052;-70
2023/01/24 07:35:38;;;;;;;14.88;10.00;;;;;;;1.85;100.00;94051.63;5069575;28;20040;-70
2023/01/24 07:38:05;;;;;;;15.55;10.23;;;;;;;1.93;100.00;94051.75;5068683;28;20488;-70
2023/01/24 07:40:32;;;;;;;15.18;10.23;;;;;;;1.79;100.00;94058.03;5064733;28;20496;-70
2023/01/24 07:43:01;;;;;;;13.88;8.88;;;;;;;1.84;100.00;94038.16;5067826;28;20072;-70
2023/01/24 07:45:28;;;;;;;12.32;9.43;;;;;;;1.92;100.00;94062.81;5069199;28;20452;-71
2023/01/24 07:47:56;;;;;;;13.32;10.20;;;;;;;1.67;100.00;94026.97;5068703;28;20044;-70
2023/01/24 07:50:23;;;;;;;10.27;7.78;;;;;;;1.67;100.00;94062.41;5068856;28;20092;-71
2023/01/24 07:52:51;;;;;;;12.35;8.50;;;;;;;1.55;100.00;94060.97;5068873;28;20092;-70
2023/01/24 07:55:18;;;;;;;56.15;34.78;;;;;;;1.68;100.00;94064.03;5068979;28;20044;-70
2023/01/24 07:57:44;;;;;;;15.30;10.98;;;;;;;1.65;100.00;94069.38;5068822;28;20122;-70
2023/01/24 08:00:14;;;;;;;12.45;9.13;;;;;;;1.71;100.00;94070.56;5068949;28;20044;-70
2023/01/24 08:02:41;;;;;;;13.07;9.13;;;;;;;1.79;100.00;94074.94;5068463;28;20049;-71
2023/01/24 08:05:08;;;;;;;12.90;9.68;;;;;;;1.81;100.00;94078.16;5068969;28;20052;-71
2023/01/24 08:07:35;;;;;;;14.15;10.60;;;;;;;1.76;100.00;94081.09;5068886;28;20455;-71
2023/01/24 08:10:02;;;;;;;18.77;15.82;;;;;;;1.78;100.00;94083.50;5068563;28;20052;-71
2023/01/24 08:12:28;;;;;;;16.05;12.98;;;;;;;1.79;100.00;94075.75;5068676;28;20109;-71
2023/01/24 08:14:55;;;;;;;12.88;9.80;;;;;;;1.73;100.00;94076.31;5068579;28;20562;-71
2023/01/24 08:17:23;;;;;;;11.25;8.95;;;;;;;1.57;100.00;94077.63;5068758;28;20049;-71
2023/01/24 08:19:50;;;;;;;10.25;7.85;;;;;;;1.54;100.00;94080.44;5069020;28;20122;-71
2023/01/24 08:22:16;;;;;;;10.55;7.72;;;;;;;1.72;100.00;94075.47;5067793;28;20098;-70
2023/01/24 08:24:43;;;;;;;11.57;8.88;;;;;;;1.87;100.00;94075.88;5068678;28;20535;-70
2023/01/24 08:27:10;;;;;;;11.73;8.63;;;;;;;1.86;100.00;94076.03;5068378;28;20044;-70
2023/01/24 08:29:36;;;;;;;9.77;7.03;;;;;;;1.72;100.00;94085.63;5068755;28;20052;-70
2023/01/24 08:32:03;;;;;;;9.15;7.55;;;;;;;1.56;100.00;94082.81;5068362;28;20098;-70
2023/01/24 08:34:31;;;;;;;10.35;8.40;;;;;;;1.68;100.00;94079.25;5068869;28;20102;-70
2023/01/24 08:36:58;;;;;;;12.00;9.98;;;;;;;1.67;100.00;94075.09;5068664;28;20466;-70
2023/01/24 08:39:25;;;;;;;9.30;7.03;;;;;;;1.41;100.00;94084.94;5068487;28;20181;-70
2023/01/24 08:41:51;;;;;;;8.90;7.43;;;;;;;1.45;100.00;94086.28;5068651;28;20479;-70
2023/01/24 08:44:18;;;;;;;9.40;7.68;;;;;;;1.43;100.00;94088.16;5068591;28;20044;-70
2023/01/24 08:47:03;;;;;;;9.07;7.40;;;;;;;1.48;100.00;94085.22;5068079;28;20401;-70
2023/01/24 08:49:31;;;;;;;10.52;8.43;;;;;;;1.60;100.00;94090.03;5068067;28;20049;-70
2023/01/24 08:51:59;;;;;;;8.85;7.35;;;;;;;1.37;100.00;94092.00;5068706;28;20098;-70
2023/01/24 08:54:26;;;;;;;11.13;9.00;;;;;;;1.35;100.00;94098.13;5068098;28;20052;-70
2023/01/24 08:56:53;;;;;;;10.18;8.65;;;;;;;1.26;100.00;94113.19;5068203;28;20048;-70
2023/01/24 08:59:20;;;;;;;10.65;8.30;;;;;;;1.19;100.00;94097.69;5067470;28;20048;-70
2023/01/24 09:01:46;;;;;;;11.40;9.05;;;;;;;1.27;100.00;94106.34;5071657;28;20040;-71
2023/01/24 09:04:13;;;;;;;12.18;9.05;;;;;;;1.13;100.00;94099.94;5072119;28;20057;-70
2023/01/24 09:06:41;;;;;;;13.52;10.27;;;;;;;1.14;100.00;94101.53;5071832;28;20512;-70
2023/01/24 09:09:08;;;;;;;13.52;10.18;;;;;;;1.32;100.00;94094.13;5071934;28;20048;-70
2023/01/24 09:11:35;;;;;;;13.32;9.75;;;;;;;1.28;100.00;94095.31;5072036;28;20045;-70
2023/01/24 09:14:01;;;;;;;16.65;11.75;;;;;;;1.38;100.00;94088.53;5072192;28;20094;-70
2023/01/24 09:16:28;;;;;;;14.02;9.38;;;;;;;1.43;100.00;94090.69;5071800;28;20538;-70
2023/01/24 09:18:55;;;;;;;16.23;11.95;;;;;;;1.34;100.00;94074.53;5071666;28;20048;-71
2023/01/24 09:21:22;;;;;;;11.07;9.82;;;;;;;1.49;100.00;94099.47;5071577;28;20044;-71
2023/01/24 09:23:50;;;;;;;10.63;7.40;;;;;;;1.60;100.00;94089.22;5071802;28;20086;-70
2023/01/24 09:26:17;;;;;;;15.82;12.45;;;;;;;1.49;100.00;94085.09;5071367;28;20102;-71
2023/01/24 09:28:44;;;;;;;11.70;8.95;;;;;;;1.50;100.00;94083.34;5069646;28;20082;-70
2023/01/24 09:31:12;;;;;;;7.55;5.90;;;;;;;1.37;100.00;94081.88;5051004;28;20107;-71
2023/01/24 09:33:39;;;;;;;10.35;7.47;;;;;;;1.36;100.00;94082.81;5071075;28;20581;-71
2023/01/24 09:36:07;;;;;;;9.27;7.18;;;;;;;1.20;100.00;94066.38;5066364;28;20094;-71
2023/01/24 09:38:34;;;;;;;11.25;6.93;;;;;;;0.98;100.00;94041.31;5070617;28;20056;-70
2023/01/24 09:41:11;;;;;;;9.38;7.07;;;;;;;1.37;100.00;94069.22;5071273;28;20049;-70
2023/01/24 09:43:46;;;;;;;10.65;7.55;;;;;;;1.33;100.00;94078.00;5071629;28;20040;-70
2023/01/24 09:46:23;;;;;;;10.25;7.35;;;;;;;1.33;100.00;94076.28;5070621;28;20110;-71
2023/01/24 09:48:58;;;;;;;7.40;6.30;;;;;;;1.38;100.00;94072.56;5071091;28;20558;-71
2023/01/24 09:51:30;;;;;;;11.40;8.00;;;;;;;1.27;100.00;94066.69;5071185;28;20149;-70
2023/01/24 09:54:00;;;;;;;10.50;8.68;;;;;;;1.32;100.00;94068.81;5071624;28;20052;-71
2023/01/24 09:56:34;;;;;;;11.55;8.57;;;;;;;1.34;100.00;94064.41;5045140;28;20394;-71
2023/01/24 09:59:14;;;;;;;11.02;7.90;;;;;;;1.32;100.00;94064.56;5070731;28;20049;-71
2023/01/24 10:01:42;;;;;;;11.23;8.57;;;;;;;1.58;100.00;94069.09;5071447;28;20048;-71
2023/01/24 10:04:22;;;;;;;11.52;9.40;;;;;;;1.64;100.00;94060.16;5070639;28;20094;-71
2023/01/24 10:07:08;;;;;;;12.75;9.60;;;;;;;1.59;100.00;94068.16;5070915;28;20497;-71
2023/01/24 10:09:47;;;;;;;9.93;8.13;;;;;;;1.49;100.00;94062.31;5070911;28;20543;-71
2023/01/24 10:12:31;;;;;;;12.43;9.30;;;;;;;1.61;100.00;94060.44;5070122;28;20048;-71
2023/01/24 10:15:10;;;;;;;10.13;8.75;;;;;;;1.47;100.00;94064.16;5070206;28;20044;-71
2023/01/24 10:17:50;;;;;;;11.98;9.38;;;;;;;1.54;100.00;94060.19;5070871;28;20044;-71
2023/01/24 10:20:29;;;;;;;12.43;9.73;;;;;;;1.45;100.00;94059.22;5065305;28;20477;-71
2023/01/24 10:23:09;;;;;;;14.38;12.52;;;;;;;1.49;100.00;94064.84;5069795;28;20051;-71
2023/01/24 10:25:49;;;;;;;11.30;9.55;;;;;;;1.48;100.00;94058.16;5069782;28;20048;-71
2023/01/24 10:28:23;;;;;;;11.40;8.25;;;;;;;1.45;100.00;94060.97;5070107;28;20052;-70
2023/01/24 10:30:59;;;;;;;10.00;8.20;;;;;;;1.11;100.00;94020.84;5056189;28;20049;-70
2023/01/24 10:33:32;;;;;;;10.20;8.15;;;;;;;1.30;100.00;94061.34;5070730;28;20045;-70
2023/01/24 10:36:02;;;;;;;9.73;7.28;;;;;;;1.13;100.00;94060.25;5070361;28;20121;-70
2023/01/24 10:38:30;;;;;;;10.88;8.75;;;;;;;1.17;100.00;94051.44;5070352;28;20098;-70
2023/01/24 10:41:11;;;;;;;9.52;7.90;;;;;;;1.09;100.00;94046.25;5070446;28;20097;-70
2023/01/24 10:43:40;;;;;;;10.70;8.10;;;;;;;1.15;100.00;94058.38;5070567;28;20367;-70
2023/01/24 10:46:30;;;;;;;11.38;10.18;;;;;;;1.19;100.00;94052.13;5070056;28;20554;-70
2023/01/24 10:48:59;;;;;;;10.73;9.38;;;;;;;0.98;100.00;94033.72;5052980;28;20049;-70
2023/01/24 10:51:26;;;;;;;11.48;9.32;;;;;;;1.14;100.00;94046.66;5069548;28;20416;-70
2023/01/24 10:54:00;;;;;;;10.02;8.95;;;;;;;1.22;100.00;94050.28;5070253;28;20086;-70
2023/01/24 10:56:27;;;;;;;10.77;8.50;;;;;;;1.18;100.00;94049.72;5070068;28;20049;-69
2023/01/24 10:59:00;;;;;;;9.68;8.68;;;;;;;1.29;100.00;94046.31;5069892;28;20049;-70
2023/01/24 11:01:34;;;;;;;12.10;9.20;;;;;;;1.36;100.00;94051.63;5069853;28;20044;-70
2023/01/24 11:04:14;;;;;;;11.43;7.82;;;;;;;1.36;100.00;94054.97;5069999;28;20470;-70
2023/01/24 11:06:41;;;;;;;12.65;8.95;;;;;;;1.49;100.00;94036.19;5069541;28;20045;-70
2023/01/24 11:09:11;;;;;;;11.93;8.57;;;;;;;1.68;100.00;94050.56;5069923;28;20044;-70
2023/01/24 11:11:45;;;;;;;9.30;7.15;;;;;;;1.58;100.00;94051.34;5069509;28;20094;-70
2023/01/24 11:14:16;;;;;;;8.93;6.40;;;;;;;1.45;100.00;94053.38;5069647;28;20503;-69
2023/01/24 11:16:45;;;;;;;9.20;6.50;;;;;;;1.41;100.00;94052.03;5069367;28;20040;-70
2023/01/24 11:19:26;;;;;;;8.98;7.35;;;;;;;1.52;100.00;94041.78;5069944;28;20459;-69
2023/01/24 11:21:55;;;;;;;9.70;7.70;;;;;;;1.55;100.00;94043.22;5042380;28;20059;-69
2023/01/24 11:24:22;;;;;;;9.15;7.00;;;;;;;1.57;100.00;94029.50;5068951;28;20554;-69
2023/01/24 11:26:56;;;;;;;9.43;7.47;;;;;;;1.36;100.00;94039.78;5069205;28;20488;-70
2023/01/24 11:29:25;;;;;;;9.30;7.75;;;;;;;1.54;100.00;94026.44;5069483;28;20044;-70
2023/01/24 11:31:54;;;;;;;8.88;7.40;;;;;;;1.70;100.00;94023.38;5069529;28;20048;-70
2023/01/24 11:34:47;;;;;;;13.57;9.80;;;;;;;1.65;100.00;94030.56;5060925;28;20098;-70
2023/01/24 11:37:34;;;;;;;13.80;11.18;;;;;;;1.33;100.00;93989.41;5055644;28;20048;-70
2023/01/24 11:40:16;;;;;;;19.50;12.63;;;;;;;1.49;100.00;94015.91;5044642;28;20048;-70
2023/01/24 11:42:51;;;;;;;34.42;21.42;;;;;;;1.43;100.00;94025.66;5068419;28;20049;-69
2023/01/24 11:45:40;;;;;;;20.38;13.63;;;;;;;1.30;100.00;94020.06;5069160;28;20045;-70
2023/01/24 11:48:13;;;;;;;25.73;15.32;;;;;;;1.35;100.00;94012.88;5046579;28;20051;-69
2023/01/24 11:50:48;;;;;;;15.85;10.52;;;;;;;1.26;100.00;94024.59;5068581;28;20044;-70
2023/01/24 11:53:28;;;;;;;21.45;13.18;;;;;;;1.37;100.00;94022.84;5068888;28;20105;-69
2023/01/24 11:56:06;;;;;;;14.90;10.90;;;;;;;1.42;100.00;94024.03;5069121;28;20088;-70
2023/01/24 11:58:53;;;;;;;11.65;8.30;;;;;;;1.37;100.00;94021.13;5068594;28;20117;-69
2023/01/24 12:01:42;;;;;;;11.32;8.70;;;;;;;1.23;100.00;94007.13;5068868;28;20044;-70
2023/01/24 12:04:39;;;;;;;14.75;9.98;;;;;;;1.29;100.00;94014.19;5069244;28;20094;-69
2023/01/24 12:07:12;;;;;;;16.38;12.52;;;;;;;1.44;100.00;94011.25;5062680;28;20094;-69
2023/01/24 12:09:44;;;;;;;13.73;10.43;;;;;;;1.49;100.00;94016.72;5068512;28;20048;-70